sensor_id;sensor_type;location;lat;lon;timestamp;temperature;humidity
46117;DHT22;32591;48.102;11.772;2023-02-25T00:00:06;3.30;99.90
46117;DHT22;32591;48.102;11.772;2023-02-25T00:02:42;3.30;99.90
46117;DHT22;32591;48.102;11.772;2023-02-25T00:05:11;3.20;99.90
46117;DHT22;32591;48.102;11.772;2023-02-25T00:07:38;3.10;99.90
46117;DHT22;32591;48.102;11.772;2023-02-25T00:10:06;2.90;99.90
46117;DHT22;32591;48.102;11.772;2023-02-25T00:12:35;2.70;99.90
46117;DHT22;32591;48.102;11.772;2023-02-25T00:15:04;2.70;99.90
46117;DHT22;32591;48.102;11.772;2023-02-25T00:17:32;2.70;99.90
46117;DHT22;32591;48.102;11.772;2023-02-25T00:19:59;2.70;99.90
46117;DHT22;32591;48.102;11.772;2023-02-25T00:22:27;2.60;99.90
46117;DHT22;32591;48.102;11.772;2023-02-25T00:24:54;2.60;99.90
46117;DHT22;32591;48.102;11.772;2023-02-25T00:27:22;2.60;99.90
46117;DHT22;32591;48.102;11.772;2023-02-25T00:29:51;2.50;99.90
46117;DHT22;32591;48.102;11.772;2023-02-25T00:32:21;2.40;99.90
46117;DHT22;32591;48.102;11.772;2023-02-25T00:34:48;2.40;99.90
46117;DHT22;32591;48.102;11.772;2023-02-25T00:37:17;2.30;99.90
46117;DHT22;32591;48.102;11.772;2023-02-25T00:39:44;2.30;99.90
46117;DHT22;32591;48.102;11.772;2023-02-25T00:42:13;2.20;99.90
46117;DHT22;32591;48.102;11.772;2023-02-25T00:44:42;2.20;99.90
46117;DHT22;32591;48.102;11.772;2023-02-25T00:47:09;2.10;99.90
46117;DHT22;32591;48.102;11.772;2023-02-25T00:49:37;2.10;99.90
46117;DHT22;32591;48.102;11.772;2023-02-25T00:52:05;2.10;99.90
46117;DHT22;32591;48.102;11.772;2023-02-25T00:54:32;2.10;99.90
46117;DHT22;32591;48.102;11.772;2023-02-25T00:57:00;2.10;99.90
46117;DHT22;32591;48.102;11.772;2023-02-25T00:59:27;2.10;99.90
46117;DHT22;32591;48.102;11.772;2023-02-25T01:01:53;2.10;99.90
46117;DHT22;32591;48.102;11.772;2023-02-25T01:04:21;2.10;99.90
46117;DHT22;32591;48.102;11.772;2023-02-25T01:06:49;2.10;99.90
46117;DHT22;32591;48.102;11.772;2023-02-25T01:09:15;2.10;99.90
46117;DHT22;32591;48.102;11.772;2023-02-25T01:11:45;2.00;99.90
46117;DHT22;32591;48.102;11.772;2023-02-25T01:14:15;1.90;99.90
46117;DHT22;32591;48.102;11.772;2023-02-25T01:16:44;1.80;99.90
46117;DHT22;32591;48.102;11.772;2023-02-25T01:19:15;1.80;99.90
46117;DHT22;32591;48.102;11.772;2023-02-25T01:21:44;1.80;99.90
46117;DHT22;32591;48.102;11.772;2023-02-25T01:24:15;1.80;99.90
46117;DHT22;32591;48.102;11.772;2023-02-25T01:26:45;1.80;99.90
46117;DHT22;32591;48.102;11.772;2023-02-25T01:29:15;1.70;99.90
46117;DHT22;32591;48.102;11.772;2023-02-25T01:31:43;1.80;99.90
46117;DHT22;32591;48.102;11.772;2023-02-25T01:34:13;1.80;99.90
46117;DHT22;32591;48.102;11.772;2023-02-25T01:36:42;1.80;99.90
46117;DHT22;32591;48.102;11.772;2023-02-25T01:39:10;1.80;99.90
46117;DHT22;32591;48.102;11.772;2023-02-25T01:41:39;1.80;99.90
46117;DHT22;32591;48.102;11.772;2023-02-25T01:44:10;1.80;99.90
46117;DHT22;32591;48.102;11.772;2023-02-25T01:46:40;1.90;99.90
46117;DHT22;32591;48.102;11.772;2023-02-25T01:49:10;1.90;99.90
46117;DHT22;32591;48.102;11.772;2023-02-25T01:51:39;1.90;99.90
46117;DHT22;32591;48.102;11.772;2023-02-25T01:54:08;1.90;99.90
46117;DHT22;32591;48.102;11.772;2023-02-25T01:56:40;1.90;99.90
46117;DHT22;32591;48.102;11.772;2023-02-25T01:59:08;1.90;99.90
46117;DHT22;32591;48.102;11.772;2023-02-25T02:01:37;2.00;99.90
46117;DHT22;32591;48.102;11.772;2023-02-25T02:04:07;2.00;99.90
46117;DHT22;32591;48.102;11.772;2023-02-25T02:06:38;2.10;99.90
46117;DHT22;32591;48.102;11.772;2023-02-25T02:09:08;2.00;99.90
46117;DHT22;32591;48.102;11.772;2023-02-25T02:11:36;2.00;99.90
46117;DHT22;32591;48.102;11.772;2023-02-25T02:14:05;1.90;99.90
46117;DHT22;32591;48.102;11.772;2023-02-25T02:16:52;1.80;99.90
46117;DHT22;32591;48.102;11.772;2023-02-25T02:19:35;1.80;99.90
46117;DHT22;32591;48.102;11.772;2023-02-25T02:22:12;1.80;99.90
46117;DHT22;32591;48.102;11.772;2023-02-25T02:28:21;1.70;99.90
46117;DHT22;32591;48.102;11.772;2023-02-25T02:31:23;1.60;99.90
46117;DHT22;32591;48.102;11.772;2023-02-25T02:34:06;1.70;99.90
46117;DHT22;32591;48.102;11.772;2023-02-25T02:36:50;1.70;99.90
46117;DHT22;32591;48.102;11.772;2023-02-25T02:39:26;1.70;99.90
46117;DHT22;32591;48.102;11.772;2023-02-25T02:42:03;1.70;99.90
46117;DHT22;32591;48.102;11.772;2023-02-25T02:44:38;1.80;99.90
46117;DHT22;32591;48.102;11.772;2023-02-25T02:47:11;1.70;99.90
46117;DHT22;32591;48.102;11.772;2023-02-25T02:49:44;1.70;99.90
46117;DHT22;32591;48.102;11.772;2023-02-25T02:52:17;1.70;99.90
46117;DHT22;32591;48.102;11.772;2023-02-25T02:54:50;1.60;99.90
46117;DHT22;32591;48.102;11.772;2023-02-25T02:57:23;1.50;99.90
46117;DHT22;32591;48.102;11.772;2023-02-25T02:59:56;1.60;99.90
46117;DHT22;32591;48.102;11.772;2023-02-25T03:02:29;1.50;99.90
46117;DHT22;32591;48.102;11.772;2023-02-25T03:05:02;1.50;99.90
46117;DHT22;32591;48.102;11.772;2023-02-25T03:07:38;1.60;99.90
46117;DHT22;32591;48.102;11.772;2023-02-25T03:10:11;1.60;99.90
46117;DHT22;32591;48.102;11.772;2023-02-25T03:12:39;1.60;99.90
46117;DHT22;32591;48.102;11.772;2023-02-25T03:15:06;1.50;99.90
46117;DHT22;32591;48.102;11.772;2023-02-25T03:17:40;1.50;99.90
46117;DHT22;32591;48.102;11.772;2023-02-25T03:20:11;1.50;99.90
46117;DHT22;32591;48.102;11.772;2023-02-25T03:22:45;1.50;99.90
46117;DHT22;32591;48.102;11.772;2023-02-25T03:25:17;1.50;99.90
46117;DHT22;32591;48.102;11.772;2023-02-25T03:27:47;1.50;99.90
46117;DHT22;32591;48.102;11.772;2023-02-25T03:30:20;1.50;99.90
46117;DHT22;32591;48.102;11.772;2023-02-25T03:32:57;1.50;99.90
46117;DHT22;32591;48.102;11.772;2023-02-25T03:35:27;1.50;99.90
46117;DHT22;32591;48.102;11.772;2023-02-25T03:38:00;1.60;99.90
46117;DHT22;32591;48.102;11.772;2023-02-25T03:40:28;1.60;99.90
46117;DHT22;32591;48.102;11.772;2023-02-25T03:43:01;1.20;99.90
46117;DHT22;32591;48.102;11.772;2023-02-25T03:45:32;1.50;99.90
46117;DHT22;32591;48.102;11.772;2023-02-25T03:48:02;1.50;99.90
46117;DHT22;32591;48.102;11.772;2023-02-25T03:50:33;1.50;99.90
46117;DHT22;32591;48.102;11.772;2023-02-25T03:53:02;1.50;99.90
46117;DHT22;32591;48.102;11.772;2023-02-25T03:55:29;1.50;99.90
46117;DHT22;32591;48.102;11.772;2023-02-25T03:57:56;1.50;99.90
46117;DHT22;32591;48.102;11.772;2023-02-25T04:00:24;1.50;99.90
46117;DHT22;32591;48.102;11.772;2023-02-25T04:02:52;1.50;99.90
46117;DHT22;32591;48.102;11.772;2023-02-25T04:05:21;1.50;99.90
46117;DHT22;32591;48.102;11.772;2023-02-25T04:07:52;1.50;99.90
46117;DHT22;32591;48.102;11.772;2023-02-25T04:10:20;1.50;99.90
46117;DHT22;32591;48.102;11.772;2023-02-25T04:12:47;1.50;99.90
46117;DHT22;32591;48.102;11.772;2023-02-25T04:15:16;1.60;99.90
46117;DHT22;32591;48.102;11.772;2023-02-25T04:17:44;1.50;99.90
46117;DHT22;32591;48.102;11.772;2023-02-25T04:20:12;1.50;99.90
46117;DHT22;32591;48.102;11.772;2023-02-25T04:22:41;1.40;99.90
46117;DHT22;32591;48.102;11.772;2023-02-25T04:25:08;1.50;99.90
46117;DHT22;32591;48.102;11.772;2023-02-25T04:27:35;1.50;99.90
46117;DHT22;32591;48.102;11.772;2023-02-25T04:30:03;1.50;99.90
46117;DHT22;32591;48.102;11.772;2023-02-25T04:32:31;1.60;99.90
46117;DHT22;32591;48.102;11.772;2023-02-25T04:34:57;1.50;99.90
46117;DHT22;32591;48.102;11.772;2023-02-25T04:37:27;1.50;99.90
46117;DHT22;32591;48.102;11.772;2023-02-25T04:39:56;1.60;99.90
46117;DHT22;32591;48.102;11.772;2023-02-25T04:42:23;1.50;99.90
46117;DHT22;32591;48.102;11.772;2023-02-25T04:44:50;1.50;99.90
46117;DHT22;32591;48.102;11.772;2023-02-25T04:47:17;1.50;99.90
46117;DHT22;32591;48.102;11.772;2023-02-25T04:49:44;1.50;99.90
46117;DHT22;32591;48.102;11.772;2023-02-25T04:52:11;1.50;99.90
46117;DHT22;32591;48.102;11.772;2023-02-25T04:54:39;1.60;99.90
46117;DHT22;32591;48.102;11.772;2023-02-25T04:57:07;1.50;99.90
46117;DHT22;32591;48.102;11.772;2023-02-25T04:59:34;1.50;99.90
46117;DHT22;32591;48.102;11.772;2023-02-25T05:02:01;1.50;99.90
46117;DHT22;32591;48.102;11.772;2023-02-25T05:04:28;1.50;99.90
46117;DHT22;32591;48.102;11.772;2023-02-25T05:06:55;1.60;99.90
46117;DHT22;32591;48.102;11.772;2023-02-25T05:09:22;1.60;99.90
46117;DHT22;32591;48.102;11.772;2023-02-25T05:11:49;1.60;99.90
46117;DHT22;32591;48.102;11.772;2023-02-25T05:14:17;1.60;99.90
46117;DHT22;32591;48.102;11.772;2023-02-25T05:16:44;1.60;99.90
46117;DHT22;32591;48.102;11.772;2023-02-25T05:19:14;1.60;99.90
46117;DHT22;32591;48.102;11.772;2023-02-25T05:21:41;1.60;99.90
46117;DHT22;32591;48.102;11.772;2023-02-25T05:24:10;1.60;99.90
46117;DHT22;32591;48.102;11.772;2023-02-25T05:26:37;1.60;99.90
46117;DHT22;32591;48.102;11.772;2023-02-25T05:29:04;1.60;99.90
46117;DHT22;32591;48.102;11.772;2023-02-25T05:31:33;1.60;99.90
46117;DHT22;32591;48.102;11.772;2023-02-25T05:34:01;1.60;99.90
46117;DHT22;32591;48.102;11.772;2023-02-25T05:36:28;1.60;99.90
46117;DHT22;32591;48.102;11.772;2023-02-25T05:38:57;1.70;99.90
46117;DHT22;32591;48.102;11.772;2023-02-25T05:41:27;1.60;99.90
46117;DHT22;32591;48.102;11.772;2023-02-25T05:43:55;1.70;99.90
46117;DHT22;32591;48.102;11.772;2023-02-25T05:46:22;1.60;99.90
46117;DHT22;32591;48.102;11.772;2023-02-25T05:48:52;1.60;99.90
46117;DHT22;32591;48.102;11.772;2023-02-25T05:51:20;1.60;99.90
46117;DHT22;32591;48.102;11.772;2023-02-25T05:53:48;1.60;99.90
46117;DHT22;32591;48.102;11.772;2023-02-25T05:56:18;1.50;99.90
46117;DHT22;32591;48.102;11.772;2023-02-25T05:58:46;1.50;99.90
46117;DHT22;32591;48.102;11.772;2023-02-25T06:01:15;1.50;99.90
46117;DHT22;32591;48.102;11.772;2023-02-25T06:03:46;1.60;99.90
46117;DHT22;32591;48.102;11.772;2023-02-25T06:06:16;1.60;99.90
46117;DHT22;32591;48.102;11.772;2023-02-25T06:08:47;1.60;99.90
46117;DHT22;32591;48.102;11.772;2023-02-25T06:11:17;1.60;99.90
46117;DHT22;32591;48.102;11.772;2023-02-25T06:13:47;1.50;99.90
46117;DHT22;32591;48.102;11.772;2023-02-25T06:16:15;1.60;99.90
46117;DHT22;32591;48.102;11.772;2023-02-25T06:18:42;1.60;99.90
46117;DHT22;32591;48.102;11.772;2023-02-25T06:21:10;1.60;99.90
46117;DHT22;32591;48.102;11.772;2023-02-25T06:23:41;1.70;99.90
46117;DHT22;32591;48.102;11.772;2023-02-25T06:26:11;1.70;99.90
46117;DHT22;32591;48.102;11.772;2023-02-25T06:28:40;1.70;99.90
46117;DHT22;32591;48.102;11.772;2023-02-25T06:31:08;1.70;99.90
46117;DHT22;32591;48.102;11.772;2023-02-25T06:33:36;1.80;99.90
46117;DHT22;32591;48.102;11.772;2023-02-25T06:36:04;1.70;99.90
46117;DHT22;32591;48.102;11.772;2023-02-25T06:38:32;1.70;99.90
46117;DHT22;32591;48.102;11.772;2023-02-25T06:41:04;1.70;99.90
46117;DHT22;32591;48.102;11.772;2023-02-25T06:43:32;1.70;99.90
46117;DHT22;32591;48.102;11.772;2023-02-25T06:46:00;1.80;99.90
46117;DHT22;32591;48.102;11.772;2023-02-25T06:48:29;1.80;99.90
46117;DHT22;32591;48.102;11.772;2023-02-25T06:50:56;1.80;99.90
46117;DHT22;32591;48.102;11.772;2023-02-25T06:53:24;1.80;99.90
46117;DHT22;32591;48.102;11.772;2023-02-25T06:55:51;1.80;99.90
46117;DHT22;32591;48.102;11.772;2023-02-25T06:58:19;1.80;99.90
46117;DHT22;32591;48.102;11.772;2023-02-25T07:00:46;1.80;99.90
46117;DHT22;32591;48.102;11.772;2023-02-25T07:03:13;1.90;99.90
46117;DHT22;32591;48.102;11.772;2023-02-25T07:05:40;1.90;99.90
46117;DHT22;32591;48.102;11.772;2023-02-25T07:08:06;2.10;99.90
46117;DHT22;32591;48.102;11.772;2023-02-25T07:10:34;2.20;99.90
46117;DHT22;32591;48.102;11.772;2023-02-25T07:13:01;2.20;99.90
46117;DHT22;32591;48.102;11.772;2023-02-25T07:15:29;2.20;99.90
46117;DHT22;32591;48.102;11.772;2023-02-25T07:17:56;2.10;99.90
46117;DHT22;32591;48.102;11.772;2023-02-25T07:20:23;2.20;99.90
46117;DHT22;32591;48.102;11.772;2023-02-25T07:22:50;2.20;99.90
46117;DHT22;32591;48.102;11.772;2023-02-25T07:25:17;2.20;99.90
46117;DHT22;32591;48.102;11.772;2023-02-25T07:27:44;2.30;99.90
46117;DHT22;32591;48.102;11.772;2023-02-25T07:30:12;2.30;99.90
46117;DHT22;32591;48.102;11.772;2023-02-25T07:32:40;2.30;99.90
46117;DHT22;32591;48.102;11.772;2023-02-25T07:35:08;2.30;99.90
46117;DHT22;32591;48.102;11.772;2023-02-25T07:37:36;2.30;99.90
46117;DHT22;32591;48.102;11.772;2023-02-25T07:40:03;2.30;99.90
46117;DHT22;32591;48.102;11.772;2023-02-25T07:42:38;2.30;99.90
46117;DHT22;32591;48.102;11.772;2023-02-25T07:45:07;2.30;99.90
46117;DHT22;32591;48.102;11.772;2023-02-25T07:47:35;2.30;99.90
46117;DHT22;32591;48.102;11.772;2023-02-25T07:50:04;2.30;99.90
46117;DHT22;32591;48.102;11.772;2023-02-25T07:52:31;2.20;99.90
46117;DHT22;32591;48.102;11.772;2023-02-25T07:54:58;2.20;99.90
46117;DHT22;32591;48.102;11.772;2023-02-25T07:57:26;2.30;99.90
46117;DHT22;32591;48.102;11.772;2023-02-25T07:59:54;2.30;99.90
46117;DHT22;32591;48.102;11.772;2023-02-25T08:02:20;2.40;99.90
46117;DHT22;32591;48.102;11.772;2023-02-25T08:04:47;2.40;99.90
46117;DHT22;32591;48.102;11.772;2023-02-25T08:07:16;2.40;99.90
46117;DHT22;32591;48.102;11.772;2023-02-25T08:09:43;2.50;99.90
46117;DHT22;32591;48.102;11.772;2023-02-25T08:12:10;2.50;99.90
46117;DHT22;32591;48.102;11.772;2023-02-25T08:14:37;2.40;99.90
46117;DHT22;32591;48.102;11.772;2023-02-25T08:17:04;2.40;99.90
46117;DHT22;32591;48.102;11.772;2023-02-25T08:19:31;2.50;99.90
46117;DHT22;32591;48.102;11.772;2023-02-25T08:21:58;2.60;99.90
46117;DHT22;32591;48.102;11.772;2023-02-25T08:24:27;2.60;99.90
46117;DHT22;32591;48.102;11.772;2023-02-25T08:26:53;2.60;99.90
46117;DHT22;32591;48.102;11.772;2023-02-25T08:29:20;2.70;99.90
46117;DHT22;32591;48.102;11.772;2023-02-25T08:31:49;2.80;99.90
46117;DHT22;32591;48.102;11.772;2023-02-25T08:34:16;2.80;99.90
46117;DHT22;32591;48.102;11.772;2023-02-25T08:36:43;2.70;99.90
46117;DHT22;32591;48.102;11.772;2023-02-25T08:39:11;2.70;99.90
46117;DHT22;32591;48.102;11.772;2023-02-25T08:41:39;2.70;99.90
46117;DHT22;32591;48.102;11.772;2023-02-25T08:44:07;2.80;99.90
46117;DHT22;32591;48.102;11.772;2023-02-25T08:46:34;2.80;99.90
46117;DHT22;32591;48.102;11.772;2023-02-25T08:49:03;2.80;99.90
46117;DHT22;32591;48.102;11.772;2023-02-25T08:51:32;2.80;99.90
46117;DHT22;32591;48.102;11.772;2023-02-25T08:54:01;2.80;99.90
46117;DHT22;32591;48.102;11.772;2023-02-25T08:56:29;2.90;99.90
46117;DHT22;32591;48.102;11.772;2023-02-25T08:58:57;2.90;99.90
46117;DHT22;32591;48.102;11.772;2023-02-25T09:01:24;3.00;99.90
46117;DHT22;32591;48.102;11.772;2023-02-25T09:04:03;3.00;99.90
46117;DHT22;32591;48.102;11.772;2023-02-25T09:06:31;3.00;99.90
46117;DHT22;32591;48.102;11.772;2023-02-25T09:08:58;2.90;99.90
46117;DHT22;32591;48.102;11.772;2023-02-25T09:11:25;3.00;99.90
46117;DHT22;32591;48.102;11.772;2023-02-25T09:13:53;3.00;99.90
46117;DHT22;32591;48.102;11.772;2023-02-25T09:16:21;3.10;99.90
46117;DHT22;32591;48.102;11.772;2023-02-25T09:18:49;3.10;99.90
46117;DHT22;32591;48.102;11.772;2023-02-25T09:21:17;4.70;99.90
46117;DHT22;32591;48.102;11.772;2023-02-25T09:23:45;5.60;99.90
46117;DHT22;32591;48.102;11.772;2023-02-25T09:26:12;5.20;99.90
46117;DHT22;32591;48.102;11.772;2023-02-25T09:28:40;4.40;99.90
46117;DHT22;32591;48.102;11.772;2023-02-25T09:31:06;4.00;99.90
46117;DHT22;32591;48.102;11.772;2023-02-25T09:33:35;3.60;99.90
46117;DHT22;32591;48.102;11.772;2023-02-25T09:36:05;3.30;99.90
46117;DHT22;32591;48.102;11.772;2023-02-25T09:38:33;3.10;99.90
46117;DHT22;32591;48.102;11.772;2023-02-25T09:41:00;3.00;99.90
46117;DHT22;32591;48.102;11.772;2023-02-25T09:43:29;2.90;99.90
46117;DHT22;32591;48.102;11.772;2023-02-25T09:46:04;2.90;99.90
46117;DHT22;32591;48.102;11.772;2023-02-25T09:48:36;3.00;99.90
46117;DHT22;32591;48.102;11.772;2023-02-25T09:51:16;2.90;99.90
46117;DHT22;32591;48.102;11.772;2023-02-25T09:53:48;2.90;99.90
46117;DHT22;32591;48.102;11.772;2023-02-25T09:56:19;2.80;99.90
46117;DHT22;32591;48.102;11.772;2023-02-25T09:58:51;2.80;99.90
46117;DHT22;32591;48.102;11.772;2023-02-25T10:01:27;2.80;99.90
46117;DHT22;32591;48.102;11.772;2023-02-25T10:04:04;2.80;99.90
46117;DHT22;32591;48.102;11.772;2023-02-25T10:06:36;2.90;99.90
46117;DHT22;32591;48.102;11.772;2023-02-25T10:09:14;2.90;99.90
46117;DHT22;32591;48.102;11.772;2023-02-25T10:11:51;2.90;99.90
46117;DHT22;32591;48.102;11.772;2023-02-25T10:14:42;2.90;99.90
46117;DHT22;32591;48.102;11.772;2023-02-25T10:17:21;2.90;99.90
46117;DHT22;32591;48.102;11.772;2023-02-25T10:23:25;2.70;99.90
46117;DHT22;32591;48.102;11.772;2023-02-25T10:25:58;2.80;99.90
46117;DHT22;32591;48.102;11.772;2023-02-25T10:28:33;2.80;99.90
46117;DHT22;32591;48.102;11.772;2023-02-25T10:31:04;2.80;99.90
46117;DHT22;32591;48.102;11.772;2023-02-25T10:33:35;2.90;99.90
46117;DHT22;32591;48.102;11.772;2023-02-25T10:36:11;2.90;99.90
46117;DHT22;32591;48.102;11.772;2023-02-25T10:38:43;2.90;99.90
46117;DHT22;32591;48.102;11.772;2023-02-25T10:41:11;3.00;99.90
46117;DHT22;32591;48.102;11.772;2023-02-25T10:43:39;3.20;99.90
46117;DHT22;32591;48.102;11.772;2023-02-25T10:46:10;3.20;99.90
46117;DHT22;32591;48.102;11.772;2023-02-25T10:48:41;3.30;99.90
46117;DHT22;32591;48.102;11.772;2023-02-25T10:51:22;3.40;99.90
46117;DHT22;32591;48.102;11.772;2023-02-25T10:54:05;3.40;99.90
46117;DHT22;32591;48.102;11.772;2023-02-25T10:56:38;3.50;99.90
46117;DHT22;32591;48.102;11.772;2023-02-25T10:59:22;3.50;99.90
46117;DHT22;32591;48.102;11.772;2023-02-25T11:01:53;3.40;99.90
46117;DHT22;32591;48.102;11.772;2023-02-25T11:04:23;3.40;99.90
46117;DHT22;32591;48.102;11.772;2023-02-25T11:06:56;3.40;99.90
46117;DHT22;32591;48.102;11.772;2023-02-25T11:09:29;3.50;99.90
46117;DHT22;32591;48.102;11.772;2023-02-25T11:12:09;3.50;99.90
46117;DHT22;32591;48.102;11.772;2023-02-25T11:14:38;3.60;99.90
46117;DHT22;32591;48.102;11.772;2023-02-25T11:17:11;3.60;99.90
46117;DHT22;32591;48.102;11.772;2023-02-25T11:19:46;3.70;99.90
46117;DHT22;32591;48.102;11.772;2023-02-25T11:22:19;3.70;99.90
46117;DHT22;32591;48.102;11.772;2023-02-25T11:24:54;3.70;99.90
46117;DHT22;32591;48.102;11.772;2023-02-25T11:27:31;3.80;99.90
46117;DHT22;32591;48.102;11.772;2023-02-25T11:30:06;3.90;99.90
46117;DHT22;32591;48.102;11.772;2023-02-25T11:32:42;3.80;99.90
46117;DHT22;32591;48.102;11.772;2023-02-25T11:35:17;4.00;99.90
46117;DHT22;32591;48.102;11.772;2023-02-25T11:37:46;4.00;99.90
46117;DHT22;32591;48.102;11.772;2023-02-25T11:40:24;3.90;99.90
46117;DHT22;32591;48.102;11.772;2023-02-25T11:43:13;4.00;99.90
46117;DHT22;32591;48.102;11.772;2023-02-25T11:45:49;4.20;99.90
46117;DHT22;32591;48.102;11.772;2023-02-25T11:48:21;4.30;99.90
46117;DHT22;32591;48.102;11.772;2023-02-25T11:50:56;4.40;99.90
46117;DHT22;32591;48.102;11.772;2023-02-25T11:53:47;4.40;99.90
46117;DHT22;32591;48.102;11.772;2023-02-25T11:56:24;4.50;99.90
46117;DHT22;32591;48.102;11.772;2023-02-25T11:59:05;4.50;99.90
46117;DHT22;32591;48.102;11.772;2023-02-25T12:02:08;4.30;99.90
46117;DHT22;32591;48.102;11.772;2023-02-25T12:04:58;4.10;99.90
46117;DHT22;32591;48.102;11.772;2023-02-25T12:07:57;4.00;99.90
46117;DHT22;32591;48.102;11.772;2023-02-25T12:14:17;4.20;99.90
46117;DHT22;32591;48.102;11.772;2023-02-25T12:17:24;4.30;99.90
46117;DHT22;32591;48.102;11.772;2023-02-25T12:20:50;4.40;99.90
46117;DHT22;32591;48.102;11.772;2023-02-25T12:24:04;4.30;99.90
46117;DHT22;32591;48.102;11.772;2023-02-25T12:30:31;4.20;99.90
46117;DHT22;32591;48.102;11.772;2023-02-25T12:33:18;4.10;99.90
46117;DHT22;32591;48.102;11.772;2023-02-25T12:36:08;4.00;99.90
46117;DHT22;32591;48.102;11.772;2023-02-25T12:39:03;4.30;99.90
46117;DHT22;32591;48.102;11.772;2023-02-25T12:41:45;4.50;99.90
46117;DHT22;32591;48.102;11.772;2023-02-25T12:44:42;4.60;99.90
46117;DHT22;32591;48.102;11.772;2023-02-25T12:47:23;4.80;99.90
46117;DHT22;32591;48.102;11.772;2023-02-25T12:50:14;4.80;99.90
46117;DHT22;32591;48.102;11.772;2023-02-25T12:53:11;4.90;99.90
46117;DHT22;32591;48.102;11.772;2023-02-25T12:55:55;4.90;99.90
46117;DHT22;32591;48.102;11.772;2023-02-25T12:59:02;5.00;99.90
46117;DHT22;32591;48.102;11.772;2023-02-25T13:01:53;5.30;99.90
46117;DHT22;32591;48.102;11.772;2023-02-25T13:07:46;5.30;99.90
46117;DHT22;32591;48.102;11.772;2023-02-25T13:10:44;4.90;99.90
46117;DHT22;32591;48.102;11.772;2023-02-25T13:13:29;4.60;99.90
46117;DHT22;32591;48.102;11.772;2023-02-25T13:16:24;4.50;99.90
46117;DHT22;32591;48.102;11.772;2023-02-25T13:19:17;4.30;99.90
46117;DHT22;32591;48.102;11.772;2023-02-25T13:22:03;4.30;99.90
46117;DHT22;32591;48.102;11.772;2023-02-25T13:24:44;4.50;99.90
46117;DHT22;32591;48.102;11.772;2023-02-25T13:27:25;4.50;99.90
46117;DHT22;32591;48.102;11.772;2023-02-25T13:30:22;4.50;99.90
46117;DHT22;32591;48.102;11.772;2023-02-25T13:33:03;4.60;99.90
46117;DHT22;32591;48.102;11.772;2023-02-25T13:35:46;4.80;99.90
46117;DHT22;32591;48.102;11.772;2023-02-25T13:38:30;5.20;99.90
46117;DHT22;32591;48.102;11.772;2023-02-25T13:41:28;5.70;99.90
46117;DHT22;32591;48.102;11.772;2023-02-25T13:44:26;5.70;99.90
46117;DHT22;32591;48.102;11.772;2023-02-25T13:47:14;5.60;99.90
46117;DHT22;32591;48.102;11.772;2023-02-25T13:54:02;5.50;99.90
46117;DHT22;32591;48.102;11.772;2023-02-25T13:57:02;5.10;99.90
46117;DHT22;32591;48.102;11.772;2023-02-25T13:59:44;5.20;99.90
46117;DHT22;32591;48.102;11.772;2023-02-25T14:05:57;5.50;99.90
46117;DHT22;32591;48.102;11.772;2023-02-25T14:09:02;5.40;99.90
46117;DHT22;32591;48.102;11.772;2023-02-25T14:11:48;5.40;99.90
46117;DHT22;32591;48.102;11.772;2023-02-25T14:14:49;5.50;99.90
46117;DHT22;32591;48.102;11.772;2023-02-25T14:17:42;5.60;99.90
46117;DHT22;32591;48.102;11.772;2023-02-25T14:20:22;5.40;99.90
46117;DHT22;32591;48.102;11.772;2023-02-25T14:23:01;5.10;99.90
46117;DHT22;32591;48.102;11.772;2023-02-25T14:25:41;4.90;99.90
46117;DHT22;32591;48.102;11.772;2023-02-25T14:28:21;4.80;99.90
46117;DHT22;32591;48.102;11.772;2023-02-25T14:31:01;4.60;99.90
46117;DHT22;32591;48.102;11.772;2023-02-25T14:33:53;4.70;99.90
46117;DHT22;32591;48.102;11.772;2023-02-25T14:37:03;4.60;99.90
46117;DHT22;32591;48.102;11.772;2023-02-25T14:39:46;4.80;99.90
46117;DHT22;32591;48.102;11.772;2023-02-25T14:42:31;5.00;99.90
46117;DHT22;32591;48.102;11.772;2023-02-25T14:45:14;4.90;99.90
46117;DHT22;32591;48.102;11.772;2023-02-25T14:47:49;4.80;99.90
46117;DHT22;32591;48.102;11.772;2023-02-25T14:50:23;4.60;99.90
46117;DHT22;32591;48.102;11.772;2023-02-25T14:53:27;4.30;99.90
46117;DHT22;32591;48.102;11.772;2023-02-25T14:56:40;4.10;99.90
46117;DHT22;32591;48.102;11.772;2023-02-25T14:59:29;4.10;99.90
46117;DHT22;32591;48.102;11.772;2023-02-25T15:02:34;4.00;99.90
46117;DHT22;32591;48.102;11.772;2023-02-25T15:05:33;4.00;99.90
46117;DHT22;32591;48.102;11.772;2023-02-25T15:08:42;4.00;99.90
46117;DHT22;32591;48.102;11.772;2023-02-25T15:11:49;4.10;99.90
46117;DHT22;32591;48.102;11.772;2023-02-25T15:14:41;4.20;99.90
46117;DHT22;32591;48.102;11.772;2023-02-25T15:17:49;4.20;99.90
46117;DHT22;32591;48.102;11.772;2023-02-25T15:20:34;4.10;99.90
46117;DHT22;32591;48.102;11.772;2023-02-25T15:23:09;4.10;99.90
46117;DHT22;32591;48.102;11.772;2023-02-25T15:25:43;4.00;99.90
46117;DHT22;32591;48.102;11.772;2023-02-25T15:28:37;3.90;99.90
46117;DHT22;32591;48.102;11.772;2023-02-25T15:34:32;3.90;99.90
46117;DHT22;32591;48.102;11.772;2023-02-25T15:37:25;3.90;99.90
46117;DHT22;32591;48.102;11.772;2023-02-25T15:39:55;3.90;99.90
46117;DHT22;32591;48.102;11.772;2023-02-25T15:42:45;3.80;99.90
46117;DHT22;32591;48.102;11.772;2023-02-25T15:45:35;3.90;99.90
46117;DHT22;32591;48.102;11.772;2023-02-25T15:48:34;4.00;99.90
46117;DHT22;32591;48.102;11.772;2023-02-25T15:51:04;3.90;99.90
46117;DHT22;32591;48.102;11.772;2023-02-25T15:53:39;3.90;99.90
46117;DHT22;32591;48.102;11.772;2023-02-25T15:59:40;3.90;99.90
46117;DHT22;32591;48.102;11.772;2023-02-25T16:02:31;4.00;99.90
46117;DHT22;32591;48.102;11.772;2023-02-25T16:05:21;3.90;99.90
46117;DHT22;32591;48.102;11.772;2023-02-25T16:07:58;3.90;99.90
46117;DHT22;32591;48.102;11.772;2023-02-25T16:10:33;4.00;99.90
46117;DHT22;32591;48.102;11.772;2023-02-25T16:13:04;3.90;99.90
46117;DHT22;32591;48.102;11.772;2023-02-25T16:15:42;3.80;99.90
46117;DHT22;32591;48.102;11.772;2023-02-25T16:18:15;3.90;99.90
46117;DHT22;32591;48.102;11.772;2023-02-25T16:20:49;3.90;99.90
46117;DHT22;32591;48.102;11.772;2023-02-25T16:23:19;3.90;99.90
46117;DHT22;32591;48.102;11.772;2023-02-25T16:25:52;3.90;99.90
46117;DHT22;32591;48.102;11.772;2023-02-25T16:28:32;3.90;99.90
46117;DHT22;32591;48.102;11.772;2023-02-25T16:31:10;3.90;99.90
46117;DHT22;32591;48.102;11.772;2023-02-25T16:33:49;3.80;99.90
46117;DHT22;32591;48.102;11.772;2023-02-25T16:36:27;3.80;99.90
46117;DHT22;32591;48.102;11.772;2023-02-25T16:39:00;3.80;99.90
46117;DHT22;32591;48.102;11.772;2023-02-25T16:41:29;3.80;99.90
46117;DHT22;32591;48.102;11.772;2023-02-25T16:43:57;3.80;99.90
46117;DHT22;32591;48.102;11.772;2023-02-25T16:46:29;3.70;99.90